sensor_id;sensor_type;location;lat;lon;timestamp;temperature;humidity
2409;DHT22;8463;48.094;7.970;2023-02-02T00:00:12;5.70;41.80
2409;DHT22;8463;48.094;7.970;2023-02-02T00:02:38;5.60;41.50
2409;DHT22;8463;48.094;7.970;2023-02-02T00:05:04;5.70;41.60
2409;DHT22;8463;48.094;7.970;2023-02-02T00:07:29;5.60;41.90
2409;DHT22;8463;48.094;7.970;2023-02-02T00:09:55;5.60;42.20
2409;DHT22;8463;48.094;7.970;2023-02-02T00:12:21;5.60;42.80
2409;DHT22;8463;48.094;7.970;2023-02-02T00:14:46;5.60;42.90
2409;DHT22;8463;48.094;7.970;2023-02-02T00:17:12;5.50;43.70
2409;DHT22;8463;48.094;7.970;2023-02-02T00:19:37;5.50;43.60
2409;DHT22;8463;48.094;7.970;2023-02-02T00:22:03;5.50;43.70
2409;DHT22;8463;48.094;7.970;2023-02-02T00:24:28;5.50;43.90
2409;DHT22;8463;48.094;7.970;2023-02-02T00:26:56;5.50;44.10
2409;DHT22;8463;48.094;7.970;2023-02-02T00:29:26;5.50;44.50
2409;DHT22;8463;48.094;7.970;2023-02-02T00:31:52;5.50;44.30
2409;DHT22;8463;48.094;7.970;2023-02-02T00:34:18;5.50;44.50
2409;DHT22;8463;48.094;7.970;2023-02-02T00:36:48;5.50;44.80
2409;DHT22;8463;48.094;7.970;2023-02-02T00:39:17;5.40;45.30
2409;DHT22;8463;48.094;7.970;2023-02-02T00:41:44;5.50;45.00
2409;DHT22;8463;48.094;7.970;2023-02-02T00:44:09;5.40;45.10
2409;DHT22;8463;48.094;7.970;2023-02-02T00:46:53;5.50;45.50
2409;DHT22;8463;48.094;7.970;2023-02-02T00:49:19;5.40;45.60
2409;DHT22;8463;48.094;7.970;2023-02-02T00:51:44;5.40;46.40
2409;DHT22;8463;48.094;7.970;2023-02-02T00:54:12;5.40;45.90
2409;DHT22;8463;48.094;7.970;2023-02-02T00:56:41;5.40;45.70
2409;DHT22;8463;48.094;7.970;2023-02-02T00:59:07;5.40;46.00
2409;DHT22;8463;48.094;7.970;2023-02-02T01:01:33;5.40;46.30
2409;DHT22;8463;48.094;7.970;2023-02-02T01:04:01;5.40;46.10
2409;DHT22;8463;48.094;7.970;2023-02-02T01:06:27;5.50;46.00
2409;DHT22;8463;48.094;7.970;2023-02-02T01:08:52;5.50;46.40
2409;DHT22;8463;48.094;7.970;2023-02-02T01:11:18;5.50;46.00
2409;DHT22;8463;48.094;7.970;2023-02-02T01:13:44;5.40;46.20
2409;DHT22;8463;48.094;7.970;2023-02-02T01:16:10;5.50;46.50
2409;DHT22;8463;48.094;7.970;2023-02-02T01:18:36;5.50;46.70
2409;DHT22;8463;48.094;7.970;2023-02-02T01:21:04;5.50;46.90
2409;DHT22;8463;48.094;7.970;2023-02-02T01:23:32;5.40;47.30
2409;DHT22;8463;48.094;7.970;2023-02-02T01:25:59;5.40;47.40
2409;DHT22;8463;48.094;7.970;2023-02-02T01:28:28;5.40;47.20
2409;DHT22;8463;48.094;7.970;2023-02-02T01:30:55;5.40;47.90
2409;DHT22;8463;48.094;7.970;2023-02-02T01:33:21;5.40;47.20
2409;DHT22;8463;48.094;7.970;2023-02-02T01:35:52;5.40;47.70
2409;DHT22;8463;48.094;7.970;2023-02-02T01:38:19;5.40;46.80
2409;DHT22;8463;48.094;7.970;2023-02-02T01:40:55;5.40;47.00
2409;DHT22;8463;48.094;7.970;2023-02-02T01:43:26;5.40;47.40
2409;DHT22;8463;48.094;7.970;2023-02-02T01:45:53;5.40;47.00
2409;DHT22;8463;48.094;7.970;2023-02-02T01:48:23;5.40;47.10
2409;DHT22;8463;48.094;7.970;2023-02-02T01:50:52;5.40;46.80
2409;DHT22;8463;48.094;7.970;2023-02-02T01:53:18;5.40;47.00
2409;DHT22;8463;48.094;7.970;2023-02-02T01:55:45;5.40;47.00
2409;DHT22;8463;48.094;7.970;2023-02-02T01:58:25;5.40;46.70
2409;DHT22;8463;48.094;7.970;2023-02-02T02:00:53;5.50;46.70
2409;DHT22;8463;48.094;7.970;2023-02-02T02:03:27;5.50;46.80
2409;DHT22;8463;48.094;7.970;2023-02-02T02:06:15;5.40;46.90
2409;DHT22;8463;48.094;7.970;2023-02-02T02:08:49;5.40;47.90
2409;DHT22;8463;48.094;7.970;2023-02-02T02:11:20;5.40;47.40
2409;DHT22;8463;48.094;7.970;2023-02-02T02:13:46;5.40;48.20
2409;DHT22;8463;48.094;7.970;2023-02-02T02:17:07;5.40;48.60
2409;DHT22;8463;48.094;7.970;2023-02-02T02:36:56;5.30;49.50
2409;DHT22;8463;48.094;7.970;2023-02-02T02:42:21;5.30;49.20
2409;DHT22;8463;48.094;7.970;2023-02-02T02:44:48;5.30;49.60
2409;DHT22;8463;48.094;7.970;2023-02-02T02:47:16;5.30;49.10
2409;DHT22;8463;48.094;7.970;2023-02-02T02:49:44;5.30;49.10
2409;DHT22;8463;48.094;7.970;2023-02-02T02:52:10;5.30;49.30
2409;DHT22;8463;48.094;7.970;2023-02-02T02:54:42;5.30;49.40
2409;DHT22;8463;48.094;7.970;2023-02-02T03:02:41;5.30;50.20
2409;DHT22;8463;48.094;7.970;2023-02-02T03:10:34;5.30;51.30
2409;DHT22;8463;48.094;7.970;2023-02-02T03:13:02;5.30;51.30
2409;DHT22;8463;48.094;7.970;2023-02-02T03:15:30;5.20;51.00
2409;DHT22;8463;48.094;7.970;2023-02-02T03:17:56;5.30;50.70
2409;DHT22;8463;48.094;7.970;2023-02-02T03:20:22;5.30;50.60
2409;DHT22;8463;48.094;7.970;2023-02-02T03:22:48;5.30;51.20
2409;DHT22;8463;48.094;7.970;2023-02-02T03:25:14;5.30;50.90
2409;DHT22;8463;48.094;7.970;2023-02-02T03:27:41;5.30;50.40
2409;DHT22;8463;48.094;7.970;2023-02-02T03:30:09;5.30;50.70
2409;DHT22;8463;48.094;7.970;2023-02-02T03:32:36;5.30;50.90
2409;DHT22;8463;48.094;7.970;2023-02-02T03:35:02;5.30;52.00
2409;DHT22;8463;48.094;7.970;2023-02-02T03:37:28;5.30;51.70
2409;DHT22;8463;48.094;7.970;2023-02-02T03:39:53;5.30;52.20
2409;DHT22;8463;48.094;7.970;2023-02-02T03:42:21;5.30;51.90
2409;DHT22;8463;48.094;7.970;2023-02-02T03:44:47;5.30;51.80
2409;DHT22;8463;48.094;7.970;2023-02-02T03:47:13;5.30;52.00
2409;DHT22;8463;48.094;7.970;2023-02-02T03:49:41;5.30;52.50
2409;DHT22;8463;48.094;7.970;2023-02-02T03:52:07;5.30;52.20
2409;DHT22;8463;48.094;7.970;2023-02-02T03:54:32;5.30;52.20
2409;DHT22;8463;48.094;7.970;2023-02-02T03:56:58;5.30;51.30
2409;DHT22;8463;48.094;7.970;2023-02-02T03:59:24;5.30;51.20
2409;DHT22;8463;48.094;7.970;2023-02-02T04:01:50;5.30;51.40
2409;DHT22;8463;48.094;7.970;2023-02-02T04:04:15;5.30;51.70
2409;DHT22;8463;48.094;7.970;2023-02-02T04:06:41;5.40;51.60
2409;DHT22;8463;48.094;7.970;2023-02-02T04:09:07;5.40;51.60
2409;DHT22;8463;48.094;7.970;2023-02-02T04:11:32;5.30;51.20
2409;DHT22;8463;48.094;7.970;2023-02-02T04:13:58;5.40;51.20
2409;DHT22;8463;48.094;7.970;2023-02-02T04:16:23;5.40;51.30
2409;DHT22;8463;48.094;7.970;2023-02-02T04:18:49;5.40;51.90
2409;DHT22;8463;48.094;7.970;2023-02-02T04:21:15;5.40;51.80
2409;DHT22;8463;48.094;7.970;2023-02-02T04:23:41;5.40;51.10
2409;DHT22;8463;48.094;7.970;2023-02-02T04:26:06;5.40;51.30
2409;DHT22;8463;48.094;7.970;2023-02-02T04:28:32;5.40;51.10
2409;DHT22;8463;48.094;7.970;2023-02-02T04:30:58;5.40;51.60
2409;DHT22;8463;48.094;7.970;2023-02-02T04:33:25;5.40;51.90
2409;DHT22;8463;48.094;7.970;2023-02-02T04:35:51;5.40;51.50
2409;DHT22;8463;48.094;7.970;2023-02-02T04:38:16;5.40;50.80
2409;DHT22;8463;48.094;7.970;2023-02-02T04:40:44;5.40;51.00
2409;DHT22;8463;48.094;7.970;2023-02-02T04:43:10;5.40;51.50
2409;DHT22;8463;48.094;7.970;2023-02-02T04:45:36;5.40;51.80
2409;DHT22;8463;48.094;7.970;2023-02-02T04:48:02;5.40;52.00
2409;DHT22;8463;48.094;7.970;2023-02-02T04:50:28;5.40;51.60
2409;DHT22;8463;48.094;7.970;2023-02-02T04:52:54;5.40;51.70
2409;DHT22;8463;48.094;7.970;2023-02-02T04:55:20;5.50;50.80
2409;DHT22;8463;48.094;7.970;2023-02-02T04:57:46;5.40;51.00
2409;DHT22;8463;48.094;7.970;2023-02-02T05:00:12;5.50;49.70
2409;DHT22;8463;48.094;7.970;2023-02-02T05:02:39;5.50;49.90
2409;DHT22;8463;48.094;7.970;2023-02-02T05:05:07;5.50;49.30
2409;DHT22;8463;48.094;7.970;2023-02-02T05:07:33;5.50;49.30
2409;DHT22;8463;48.094;7.970;2023-02-02T05:09:59;5.60;49.00
2409;DHT22;8463;48.094;7.970;2023-02-02T05:12:25;5.60;49.00
2409;DHT22;8463;48.094;7.970;2023-02-02T05:14:50;5.60;48.90
2409;DHT22;8463;48.094;7.970;2023-02-02T05:17:16;5.50;50.70
2409;DHT22;8463;48.094;7.970;2023-02-02T05:19:42;5.60;48.80
2409;DHT22;8463;48.094;7.970;2023-02-02T05:22:07;5.60;48.80
2409;DHT22;8463;48.094;7.970;2023-02-02T05:24:33;5.60;48.90
2409;DHT22;8463;48.094;7.970;2023-02-02T05:26:59;5.60;48.90
2409;DHT22;8463;48.094;7.970;2023-02-02T05:29:28;5.60;49.20
2409;DHT22;8463;48.094;7.970;2023-02-02T05:31:55;5.60;49.30
2409;DHT22;8463;48.094;7.970;2023-02-02T05:34:21;5.60;49.30
2409;DHT22;8463;48.094;7.970;2023-02-02T05:36:47;5.60;48.80
2409;DHT22;8463;48.094;7.970;2023-02-02T05:39:13;5.60;48.80
2409;DHT22;8463;48.094;7.970;2023-02-02T05:41:39;5.60;48.90
2409;DHT22;8463;48.094;7.970;2023-02-02T05:44:05;5.60;48.80
2409;DHT22;8463;48.094;7.970;2023-02-02T05:46:30;5.60;48.80
2409;DHT22;8463;48.094;7.970;2023-02-02T05:48:56;5.60;48.80
2409;DHT22;8463;48.094;7.970;2023-02-02T05:51:28;5.60;49.10
2409;DHT22;8463;48.094;7.970;2023-02-02T05:53:56;5.60;48.80
2409;DHT22;8463;48.094;7.970;2023-02-02T05:56:21;5.60;48.80
2409;DHT22;8463;48.094;7.970;2023-02-02T05:58:49;5.70;48.80
2409;DHT22;8463;48.094;7.970;2023-02-02T06:01:16;5.60;48.80
2409;DHT22;8463;48.094;7.970;2023-02-02T06:03:42;5.60;48.80
2409;DHT22;8463;48.094;7.970;2023-02-02T06:06:08;5.60;48.80
2409;DHT22;8463;48.094;7.970;2023-02-02T06:08:34;5.60;48.80
2409;DHT22;8463;48.094;7.970;2023-02-02T06:11:08;5.60;48.80
2409;DHT22;8463;48.094;7.970;2023-02-02T06:13:34;5.70;48.80
2409;DHT22;8463;48.094;7.970;2023-02-02T06:15:59;5.70;48.80
2409;DHT22;8463;48.094;7.970;2023-02-02T06:18:25;5.70;48.80
2409;DHT22;8463;48.094;7.970;2023-02-02T06:20:59;5.60;48.90
2409;DHT22;8463;48.094;7.970;2023-02-02T06:23:25;5.60;49.70
2409;DHT22;8463;48.094;7.970;2023-02-02T06:25:51;5.60;49.90
2409;DHT22;8463;48.094;7.970;2023-02-02T06:28:17;5.60;50.00
2409;DHT22;8463;48.094;7.970;2023-02-02T06:30:43;5.60;50.40
2409;DHT22;8463;48.094;7.970;2023-02-02T06:33:08;5.60;50.80
2409;DHT22;8463;48.094;7.970;2023-02-02T06:35:34;5.60;50.60
2409;DHT22;8463;48.094;7.970;2023-02-02T06:38:00;5.60;50.30
2409;DHT22;8463;48.094;7.970;2023-02-02T06:40:26;5.60;50.50
2409;DHT22;8463;48.094;7.970;2023-02-02T06:42:56;5.60;50.70
2409;DHT22;8463;48.094;7.970;2023-02-02T06:45:22;5.60;51.20
2409;DHT22;8463;48.094;7.970;2023-02-02T06:47:48;5.50;51.40
2409;DHT22;8463;48.094;7.970;2023-02-02T06:50:14;5.60;51.50
2409;DHT22;8463;48.094;7.970;2023-02-02T06:52:47;5.60;51.40
2409;DHT22;8463;48.094;7.970;2023-02-02T06:55:16;5.50;51.80
2409;DHT22;8463;48.094;7.970;2023-02-02T06:57:42;5.50;51.50
2409;DHT22;8463;48.094;7.970;2023-02-02T07:00:08;6.10;72.50
2409;DHT22;8463;48.094;7.970;2023-02-02T07:02:34;7.20;47.40
2409;DHT22;8463;48.094;7.970;2023-02-02T07:05:00;6.80;43.70
2409;DHT22;8463;48.094;7.970;2023-02-02T07:07:27;6.30;47.30
2409;DHT22;8463;48.094;7.970;2023-02-02T07:09:52;5.90;49.70
2409;DHT22;8463;48.094;7.970;2023-02-02T07:12:18;5.80;51.20
2409;DHT22;8463;48.094;7.970;2023-02-02T07:14:44;5.70;52.30
2409;DHT22;8463;48.094;7.970;2023-02-02T07:17:10;5.60;52.70
2409;DHT22;8463;48.094;7.970;2023-02-02T07:19:36;5.60;52.90
2409;DHT22;8463;48.094;7.970;2023-02-02T07:22:02;5.60;52.70
2409;DHT22;8463;48.094;7.970;2023-02-02T07:24:27;5.60;52.20
2409;DHT22;8463;48.094;7.970;2023-02-02T07:26:53;5.60;52.30
2409;DHT22;8463;48.094;7.970;2023-02-02T07:29:19;5.60;52.80
2409;DHT22;8463;48.094;7.970;2023-02-02T07:31:44;5.60;53.20
2409;DHT22;8463;48.094;7.970;2023-02-02T07:34:10;5.60;53.30
2409;DHT22;8463;48.094;7.970;2023-02-02T07:36:36;5.60;54.10
2409;DHT22;8463;48.094;7.970;2023-02-02T07:39:03;5.60;54.40
2409;DHT22;8463;48.094;7.970;2023-02-02T07:41:29;5.60;54.80
2409;DHT22;8463;48.094;7.970;2023-02-02T07:43:55;5.60;55.00
2409;DHT22;8463;48.094;7.970;2023-02-02T07:46:21;5.50;55.00
2409;DHT22;8463;48.094;7.970;2023-02-02T07:48:47;5.50;55.50
2409;DHT22;8463;48.094;7.970;2023-02-02T07:51:15;5.50;55.30
2409;DHT22;8463;48.094;7.970;2023-02-02T07:53:45;5.50;55.30
2409;DHT22;8463;48.094;7.970;2023-02-02T07:56:18;5.60;55.20
2409;DHT22;8463;48.094;7.970;2023-02-02T07:58:44;5.50;54.40
2409;DHT22;8463;48.094;7.970;2023-02-02T08:01:13;5.50;55.20
2409;DHT22;8463;48.094;7.970;2023-02-02T08:03:40;5.50;56.10
2409;DHT22;8463;48.094;7.970;2023-02-02T08:06:27;5.50;57.90
2409;DHT22;8463;48.094;7.970;2023-02-02T08:08:54;5.50;60.00
2409;DHT22;8463;48.094;7.970;2023-02-02T08:11:21;5.40;60.00
2409;DHT22;8463;48.094;7.970;2023-02-02T08:13:48;5.40;59.30
2409;DHT22;8463;48.094;7.970;2023-02-02T08:16:15;5.50;58.60
2409;DHT22;8463;48.094;7.970;2023-02-02T08:18:40;5.50;57.40
2409;DHT22;8463;48.094;7.970;2023-02-02T08:21:07;5.50;58.90
2409;DHT22;8463;48.094;7.970;2023-02-02T08:23:34;5.50;59.20
2409;DHT22;8463;48.094;7.970;2023-02-02T08:26:09;5.50;57.60
2409;DHT22;8463;48.094;7.970;2023-02-02T08:28:35;5.50;57.40
2409;DHT22;8463;48.094;7.970;2023-02-02T08:31:09;5.50;57.30
2409;DHT22;8463;48.094;7.970;2023-02-02T08:33:35;5.60;56.90
2409;DHT22;8463;48.094;7.970;2023-02-02T08:36:01;5.60;55.40
2409;DHT22;8463;48.094;7.970;2023-02-02T08:38:27;5.60;55.60
2409;DHT22;8463;48.094;7.970;2023-02-02T08:40:53;5.70;54.10
2409;DHT22;8463;48.094;7.970;2023-02-02T08:43:19;5.70;56.30
2409;DHT22;8463;48.094;7.970;2023-02-02T08:45:45;5.70;57.30
2409;DHT22;8463;48.094;7.970;2023-02-02T08:48:10;5.70;56.10
2409;DHT22;8463;48.094;7.970;2023-02-02T08:50:37;5.70;55.10
2409;DHT22;8463;48.094;7.970;2023-02-02T08:53:03;5.70;54.70
2409;DHT22;8463;48.094;7.970;2023-02-02T08:55:31;5.70;55.50
2409;DHT22;8463;48.094;7.970;2023-02-02T08:57:56;5.70;53.20
2409;DHT22;8463;48.094;7.970;2023-02-02T09:00:22;5.80;54.30
2409;DHT22;8463;48.094;7.970;2023-02-02T09:02:50;5.80;53.10
2409;DHT22;8463;48.094;7.970;2023-02-02T09:05:16;5.80;53.40
2409;DHT22;8463;48.094;7.970;2023-02-02T09:07:42;5.80;53.60
2409;DHT22;8463;48.094;7.970;2023-02-02T09:10:08;5.80;53.30
2409;DHT22;8463;48.094;7.970;2023-02-02T09:12:35;5.80;53.20
2409;DHT22;8463;48.094;7.970;2023-02-02T09:15:01;5.90;52.70
2409;DHT22;8463;48.094;7.970;2023-02-02T09:17:27;5.90;52.90
2409;DHT22;8463;48.094;7.970;2023-02-02T09:19:54;5.90;51.60
2409;DHT22;8463;48.094;7.970;2023-02-02T09:22:19;6.00;52.00
2409;DHT22;8463;48.094;7.970;2023-02-02T09:24:45;6.00;51.60
2409;DHT22;8463;48.094;7.970;2023-02-02T09:27:11;6.00;52.40
2409;DHT22;8463;48.094;7.970;2023-02-02T09:29:37;6.60;53.00
2409;DHT22;8463;48.094;7.970;2023-02-02T09:32:02;6.00;51.80
2409;DHT22;8463;48.094;7.970;2023-02-02T09:34:28;6.00;52.30
2409;DHT22;8463;48.094;7.970;2023-02-02T09:36:54;6.10;51.10
2409;DHT22;8463;48.094;7.970;2023-02-02T09:39:19;6.10;51.30
2409;DHT22;8463;48.094;7.970;2023-02-02T09:42:02;6.10;52.00
2409;DHT22;8463;48.094;7.970;2023-02-02T09:47:42;6.00;54.00
2409;DHT22;8463;48.094;7.970;2023-02-02T09:55:34;6.00;53.40
2409;DHT22;8463;48.094;7.970;2023-02-02T10:00:49;6.10;53.60
2409;DHT22;8463;48.094;7.970;2023-02-02T10:03:28;6.10;53.50
2409;DHT22;8463;48.094;7.970;2023-02-02T10:08:44;6.10;55.70
2409;DHT22;8463;48.094;7.970;2023-02-02T10:11:31;5.90;57.70
2409;DHT22;8463;48.094;7.970;2023-02-02T10:14:07;5.90;58.90
2409;DHT22;8463;48.094;7.970;2023-02-02T10:16:37;5.90;60.20
2409;DHT22;8463;48.094;7.970;2023-02-02T10:19:08;5.80;60.50
2409;DHT22;8463;48.094;7.970;2023-02-02T10:21:42;5.80;61.80
2409;DHT22;8463;48.094;7.970;2023-02-02T10:24:20;5.80;62.30
2409;DHT22;8463;48.094;7.970;2023-02-02T10:27:03;5.80;61.70
2409;DHT22;8463;48.094;7.970;2023-02-02T10:30:18;5.80;61.30
2409;DHT22;8463;48.094;7.970;2023-02-02T10:32:25;5.80;61.20
2409;DHT22;8463;48.094;7.970;2023-02-02T10:38:02;5.90;60.70
2409;DHT22;8463;48.094;7.970;2023-02-02T10:46:24;6.00;57.90
2409;DHT22;8463;48.094;7.970;2023-02-02T10:48:59;6.10;58.30
2409;DHT22;8463;48.094;7.970;2023-02-02T10:51:27;6.10;57.30
2409;DHT22;8463;48.094;7.970;2023-02-02T10:53:56;6.10;57.40
2409;DHT22;8463;48.094;7.970;2023-02-02T10:56:27;6.10;56.20
2409;DHT22;8463;48.094;7.970;2023-02-02T10:59:40;6.10;56.70
2409;DHT22;8463;48.094;7.970;2023-02-02T11:01:46;6.20;56.40
2409;DHT22;8463;48.094;7.970;2023-02-02T11:04:13;6.20;57.00
2409;DHT22;8463;48.094;7.970;2023-02-02T11:06:57;6.20;56.50
2409;DHT22;8463;48.094;7.970;2023-02-02T11:09:23;6.20;56.40
2409;DHT22;8463;48.094;7.970;2023-02-02T11:14:38;6.20;55.70
2409;DHT22;8463;48.094;7.970;2023-02-02T11:19:43;6.20;55.50
2409;DHT22;8463;48.094;7.970;2023-02-02T11:22:30;6.20;55.90
2409;DHT22;8463;48.094;7.970;2023-02-02T11:25:01;6.30;55.80
2409;DHT22;8463;48.094;7.970;2023-02-02T11:30:07;6.30;55.20
2409;DHT22;8463;48.094;7.970;2023-02-02T11:32:34;6.40;51.50
2409;DHT22;8463;48.094;7.970;2023-02-02T11:35:22;6.40;52.00
2409;DHT22;8463;48.094;7.970;2023-02-02T11:38:13;6.50;50.50
2409;DHT22;8463;48.094;7.970;2023-02-02T11:41:09;6.50;51.30
2409;DHT22;8463;48.094;7.970;2023-02-02T11:43:55;6.50;52.60
2409;DHT22;8463;48.094;7.970;2023-02-02T11:46:28;6.40;52.30
2409;DHT22;8463;48.094;7.970;2023-02-02T11:49:04;6.50;51.80
2409;DHT22;8463;48.094;7.970;2023-02-02T11:51:33;6.50;51.30
2409;DHT22;8463;48.094;7.970;2023-02-02T11:54:17;6.50;50.60
2409;DHT22;8463;48.094;7.970;2023-02-02T11:56:53;6.50;50.10
2409;DHT22;8463;48.094;7.970;2023-02-02T11:59:36;6.50;50.00
2409;DHT22;8463;48.094;7.970;2023-02-02T12:04:38;6.60;47.90
2409;DHT22;8463;48.094;7.970;2023-02-02T12:07:18;6.60;49.70
2409;DHT22;8463;48.094;7.970;2023-02-02T12:09:44;6.60;50.20
2409;DHT22;8463;48.094;7.970;2023-02-02T12:17:39;6.60;50.70
2409;DHT22;8463;48.094;7.970;2023-02-02T12:23:30;6.60;49.70
2409;DHT22;8463;48.094;7.970;2023-02-02T12:29:09;6.70;47.20
2409;DHT22;8463;48.094;7.970;2023-02-02T12:50:42;6.70;48.60
2409;DHT22;8463;48.094;7.970;2023-02-02T13:12:07;6.60;52.00
2409;DHT22;8463;48.094;7.970;2023-02-02T13:14:49;6.60;49.90
2409;DHT22;8463;48.094;7.970;2023-02-02T13:17:24;6.60;51.30
2409;DHT22;8463;48.094;7.970;2023-02-02T13:19:58;6.50;50.90
2409;DHT22;8463;48.094;7.970;2023-02-02T13:22:35;6.50;50.30
2409;DHT22;8463;48.094;7.970;2023-02-02T13:25:04;6.60;50.40
2409;DHT22;8463;48.094;7.970;2023-02-02T13:27:33;6.60;50.90
2409;DHT22;8463;48.094;7.970;2023-02-02T13:32:45;6.50;51.80
2409;DHT22;8463;48.094;7.970;2023-02-02T13:35:21;6.60;50.50
2409;DHT22;8463;48.094;7.970;2023-02-02T13:40:28;6.50;51.70
2409;DHT22;8463;48.094;7.970;2023-02-02T13:54:18;6.50;52.60
2409;DHT22;8463;48.094;7.970;2023-02-02T14:02:32;6.50;53.20
2409;DHT22;8463;48.094;7.970;2023-02-02T14:05:02;6.50;54.30
2409;DHT22;8463;48.094;7.970;2023-02-02T14:07:42;6.40;53.90
2409;DHT22;8463;48.094;7.970;2023-02-02T14:10:42;6.40;52.90
2409;DHT22;8463;48.094;7.970;2023-02-02T14:16:03;6.40;54.00
2409;DHT22;8463;48.094;7.970;2023-02-02T14:34:35;6.50;53.90
2409;DHT22;8463;48.094;7.970;2023-02-02T14:45:31;6.50;53.20
2409;DHT22;8463;48.094;7.970;2023-02-02T14:58:36;6.50;52.90
2409;DHT22;8463;48.094;7.970;2023-02-02T15:01:12;6.50;52.20
2409;DHT22;8463;48.094;7.970;2023-02-02T15:14:54;6.60;49.70
2409;DHT22;8463;48.094;7.970;2023-02-02T15:25:30;6.80;48.00
2409;DHT22;8463;48.094;7.970;2023-02-02T15:28:28;6.70;48.30
2409;DHT22;8463;48.094;7.970;2023-02-02T15:33:50;6.80;47.20
2409;DHT22;8463;48.094;7.970;2023-02-02T15:36:23;6.80;46.60
2409;DHT22;8463;48.094;7.970;2023-02-02T15:38:53;6.90;45.50
2409;DHT22;8463;48.094;7.970;2023-02-02T15:41:32;6.80;46.50
2409;DHT22;8463;48.094;7.970;2023-02-02T15:43:59;6.80;46.80
2409;DHT22;8463;48.094;7.970;2023-02-02T15:46:30;6.80;46.90
2409;DHT22;8463;48.094;7.970;2023-02-02T15:49:22;6.80;46.50
2409;DHT22;8463;48.094;7.970;2023-02-02T15:51:54;6.80;46.50
2409;DHT22;8463;48.094;7.970;2023-02-02T15:54:29;6.90;46.00
2409;DHT22;8463;48.094;7.970;2023-02-02T15:56:58;6.90;46.00
2409;DHT22;8463;48.094;7.970;2023-02-02T15:59:38;6.90;45.50
2409;DHT22;8463;48.094;7.970;2023-02-02T16:04:39;6.90;45.60
2409;DHT22;8463;48.094;7.970;2023-02-02T16:07:10;7.00;45.00
2409;DHT22;8463;48.094;7.970;2023-02-02T16:09:37;7.00;45.60
2409;DHT22;8463;48.094;7.970;2023-02-02T16:12:11;7.00;46.10
2409;DHT22;8463;48.094;7.970;2023-02-02T16:14:38;6.90;46.70
2409;DHT22;8463;48.094;7.970;2023-02-02T16:17:18;6.90;47.60
2409;DHT22;8463;48.094;7.970;2023-02-02T16:19:46;6.90;48.20
2409;DHT22;8463;48.094;7.970;2023-02-02T16:22:16;6.90;48.80
2409;DHT22;8463;48.094;7.970;2023-02-02T16:24:51;6.90;49.00
2409;DHT22;8463;48.094;7.970;2023-02-02T16:27:21;6.90;49.50
2409;DHT22;8463;48.094;7.970;2023-02-02T16:29:48;6.90;49.10
2409;DHT22;8463;48.094;7.970;2023-02-02T16:32:33;6.90;48.40
2409;DHT22;8463;48.094;7.970;2023-02-02T16:35:05;6.90;48.10
2409;DHT22;8463;48.094;7.970;2023-02-02T16:37:33;7.70;48.30
2409;DHT22;8463;48.094;7.970;2023-02-02T16:40:33;7.10;46.80
2409;DHT22;8463;48.094;7.970;2023-02-02T16:43:18;7.10;47.00
2409;DHT22;8463;48.094;7.970;2023-02-02T16:46:04;7.10;46.80
2409;DHT22;8463;48.094;7.970;2023-02-02T16:48:37;7.10;46.40
2409;DHT22;8463;48.094;7.970;2023-02-02T16:53:32;7.00;47.00
2409;DHT22;8463;48.094;7.970;2023-02-02T16:55:59;7.00;46.90
2409;DHT22;8463;48.094;7.970;2023-02-02T16:58:25;7.00;47.50
2409;DHT22;8463;48.094;7.970;2023-02-02T17:01:07;7.10;47.50
2409;DHT22;8463;48.094;7.970;2023-02-02T17:03:37;7.20;45.50
2409;DHT22;8463;48.094;7.970;2023-02-02T17:06:04;7.10;45.90
2409;DHT22;8463;48.094;7.970;2023-02-02T17:08:32;7.10;46.20
2409;DHT22;8463;48.094;7.970;2023-02-02T17:13:39;7.10;46.30
2409;DHT22;8463;48.094;7.970;2023-02-02T17:16:05;7.10;45.90
2409;DHT22;8463;48.094;7.970;2023-02-02T17:18:31;7.20;45.40
2409;DHT22;8463;48.094;7.970;2023-02-02T17:20:57;7.20;44.30
2409;DHT22;8463;48.094;7.970;2023-02-02T17:23:30;7.20;44.30
2409;DHT22;8463;48.094;7.970;2023-02-02T17:25:56;7.20;45.50
2409;DHT22;8463;48.094;7.970;2023-02-02T17:28:24;7.20;46.10
2409;DHT22;8463;48.094;7.970;2023-02-02T17:30:57;7.10;46.20
2409;DHT22;8463;48.094;7.970;2023-02-02T17:33:25;7.10;46.20
2409;DHT22;8463;48.094;7.970;2023-02-02T17:35:51;7.10;47.50
2409;DHT22;8463;48.094;7.970;2023-02-02T17:38:21;7.10;48.60
2409;DHT22;8463;48.094;7.970;2023-02-02T17:40:47;7.00;49.30
2409;DHT22;8463;48.094;7.970;2023-02-02T17:43:13;7.00;50.10
2409;DHT22;8463;48.094;7.970;2023-02-02T17:45:40;7.00;50.00
2409;DHT22;8463;48.094;7.970;2023-02-02T17:48:09;7.00;50.10
2409;DHT22;8463;48.094;7.970;2023-02-02T17:50:36;6.90;50.20
2409;DHT22;8463;48.094;7.970;2023-02-02T17:53:02;6.90;51.50
2409;DHT22;8463;48.094;7.970;2023-02-02T17:55:34;6.90;51.70
2409;DHT22;8463;48.094;7.970;2023-02-02T17:58:00;6.80;52.30
2409;DHT22;8463;48.094;7.970;2023-02-02T18:00:26;6.80;53.10
2409;DHT22;8463;48.094;7.970;2023-02-02T18:02:56;6.80;54.20
2409;DHT22;8463;48.094;7.970;2023-02-02T18:05:23;6.70;55.10
2409;DHT22;8463;48.094;7.970;2023-02-02T18:07:49;6.70;54.10
2409;DHT22;8463;48.094;7.970;2023-02-02T18:10:15;6.70;53.60
2409;DHT22;8463;48.094;7.970;2023-02-02T18:12:41;6.70;55.10
2409;DHT22;8463;48.094;7.970;2023-02-02T18:15:10;6.70;55.80
2409;DHT22;8463;48.094;7.970;2023-02-02T18:17:36;6.70;55.30
2409;DHT22;8463;48.094;7.970;2023-02-02T18:20:05;6.70;55.90
2409;DHT22;8463;48.094;7.970;2023-02-02T18:22:31;6.70;55.80
2409;DHT22;8463;48.094;7.970;2023-02-02T18:24:57;6.60;57.20
2409;DHT22;8463;48.094;7.970;2023-02-02T18:27:28;6.60;58.30
2409;DHT22;8463;48.094;7.970;2023-02-02T18:29:53;6.50;58.60
2409;DHT22;8463;48.094;7.970;2023-02-02T18:32:19;6.50;59.20
2409;DHT22;8463;48.094;7.970;2023-02-02T18:34:45;6.50;59.70
2409;DHT22;8463;48.094;7.970;2023-02-02T18:37:16;6.40;60.10
2409;DHT22;8463;48.094;7.970;2023-02-02T18:39:41;6.40;61.00
2409;DHT22;8463;48.094;7.970;2023-02-02T18:42:11;6.40;61.10
2409;DHT22;8463;48.094;7.970;2023-02-02T18:44:36;6.30;61.50
2409;DHT22;8463;48.094;7.970;2023-02-02T18:47:05;6.40;62.20
2409;DHT22;8463;48.094;7.970;2023-02-02T18:49:31;6.30;62.00
2409;DHT22;8463;48.094;7.970;2023-02-02T18:51:56;6.30;62.30
2409;DHT22;8463;48.094;7.970;2023-02-02T18:54:22;6.30;62.10
2409;DHT22;8463;48.094;7.970;2023-02-02T18:56:48;6.30;62.80
2409;DHT22;8463;48.094;7.970;2023-02-02T18:59:14;6.30;64.10
2409;DHT22;8463;48.094;7.970;2023-02-02T19:01:40;6.20;63.80
2409;DHT22;8463;48.094;7.970;2023-02-02T19:04:06;6.30;62.40
2409;DHT22;8463;48.094;7.970;2023-02-02T19:06:33;6.30;62.60
2409;DHT22;8463;48.094;7.970;2023-02-02T19:09:17;6.30;63.60
2409;DHT22;8463;48.094;7.970;2023-02-02T19:11:47;6.40;65.20
2409;DHT22;8463;48.094;7.970;2023-02-02T19:14:20;6.70;63.70
2409;DHT22;8463;48.094;7.970;2023-02-02T19:16:51;6.60;61.20
2409;DHT22;8463;48.094;7.970;2023-02-02T19:19:32;6.50;61.30
2409;DHT22;8463;48.094;7.970;2023-02-02T19:22:00;6.40;63.30
2409;DHT22;8463;48.094;7.970;2023-02-02T19:24:31;6.40;60.40
2409;DHT22;8463;48.094;7.970;2023-02-02T19:26:58;6.40;60.90
2409;DHT22;8463;48.094;7.970;2023-02-02T19:29:29;6.40;60.60
2409;DHT22;8463;48.094;7.970;2023-02-02T19:32:08;6.40;61.80
2409;DHT22;8463;48.094;7.970;2023-02-02T19:34:39;6.40;61.10
2409;DHT22;8463;48.094;7.970;2023-02-02T19:37:25;6.40;61.20
2409;DHT22;8463;48.094;7.970;2023-02-02T19:42:38;6.30;61.50
2409;DHT22;8463;48.094;7.970;2023-02-02T19:45:20;6.30;62.50
2409;DHT22;8463;48.094;7.970;2023-02-02T19:47:48;6.30;61.40
2409;DHT22;8463;48.094;7.970;2023-02-02T19:50:23;6.30;60.40
2409;DHT22;8463;48.094;7.970;2023-02-02T19:52:50;6.40;60.10
2409;DHT22;8463;48.094;7.970;2023-02-02T19:55:25;6.40;60.70
2409;DHT22;8463;48.094;7.970;2023-02-02T19:58:27;6.30;61.40